LNR13CL EGKK-LSGG
Flight info
| Callsign | LNR13CL |
|---|---|
| Flight time | 1h 14m |
| Altitude | 31000 |
| Route | BOGNA L612 HAWKE UL612 RESMI UM975 PEKIM DCT PILUL DCT PIMUP/N0383F270 DCT PIXIS DCT PIBAT DCT LUSAR |
| Aircraft | A320/M-SDE3FGHIRWY/LB1 |
Departure
| Time | 2026-04-16 14:43 |
|---|---|
| Airport | London Gatwick Airport (EGKK) |
Arrival
| Time | 2026-04-16 15:57 |
|---|---|
| Airport | Geneva International Airport (LSGG) |
| Time | Latitude | Longitude | Altitude | Speed | Heading |
|---|---|---|---|---|---|
| 2026-04-16 14:09 | 51.15873 | -0.16920 | 204 ft | 0 kts | 130° |
| 2026-04-16 14:31 | 51.15880 | -0.16932 | 214 ft | 4 kts | 131° |
| 2026-04-16 14:31 | 51.15898 | -0.16964 | 209 ft | 4 kts | 135° |
| 2026-04-16 14:32 | 51.15918 | -0.16991 | 214 ft | 4 kts | 151° |
| 2026-04-16 14:32 | 51.15940 | -0.17002 | 214 ft | 4 kts | 208° |
| 2026-04-16 14:32 | 51.15945 | -0.16998 | 214 ft | 0 kts | 221° |
| 2026-04-16 14:36 | 51.15933 | -0.17014 | 205 ft | 6 kts | 221° |
| 2026-04-16 14:36 | 51.15894 | -0.17057 | 206 ft | 8 kts | 210° |
| 2026-04-16 14:37 | 51.15835 | -0.17083 | 204 ft | 10 kts | 193° |
| 2026-04-16 14:37 | 51.15805 | -0.17178 | 213 ft | 11 kts | 259° |
| 2026-04-16 14:37 | 51.15788 | -0.17310 | 208 ft | 13 kts | 258° |
| 2026-04-16 14:37 | 51.15768 | -0.17454 | 206 ft | 13 kts | 258° |
| 2026-04-16 14:38 | 51.15709 | -0.17493 | 208 ft | 10 kts | 168° |
| 2026-04-16 14:38 | 51.15634 | -0.17468 | 207 ft | 12 kts | 168° |
| 2026-04-16 14:38 | 51.15547 | -0.17438 | 205 ft | 13 kts | 168° |
| 2026-04-16 14:38 | 51.15483 | -0.17416 | 204 ft | 8 kts | 166° |
| 2026-04-16 14:39 | 51.15419 | -0.17394 | 208 ft | 10 kts | 169° |
| 2026-04-16 14:39 | 51.15342 | -0.17367 | 207 ft | 12 kts | 166° |
| 2026-04-16 14:39 | 51.15254 | -0.17324 | 211 ft | 14 kts | 148° |
| 2026-04-16 14:39 | 51.15178 | -0.17227 | 214 ft | 11 kts | 115° |
| 2026-04-16 14:40 | 51.15193 | -0.17112 | 213 ft | 10 kts | 76° |
| 2026-04-16 14:40 | 51.15200 | -0.17054 | 207 ft | 0 kts | 78° |
| 2026-04-16 14:40 | 51.15207 | -0.17003 | 207 ft | 11 kts | 78° |
| 2026-04-16 14:41 | 51.15209 | -0.16992 | 205 ft | 0 kts | 78° |
| 2026-04-16 14:41 | 51.15218 | -0.16923 | 213 ft | 13 kts | 78° |
| 2026-04-16 14:41 | 51.15206 | -0.16800 | 211 ft | 11 kts | 139° |
| 2026-04-16 14:41 | 51.15131 | -0.16779 | 204 ft | 10 kts | 192° |
| 2026-04-16 14:42 | 51.15113 | -0.16855 | 214 ft | 4 kts | 259° |
| 2026-04-16 14:42 | 51.15112 | -0.16863 | 213 ft | 4 kts | 259° |
| 2026-04-16 14:42 | 51.15067 | -0.17205 | 208 ft | 68 kts | 257° |
| 2026-04-16 14:42 | 51.14914 | -0.18292 | 204 ft | 130 kts | 257° |
| 2026-04-16 14:43 | 51.14690 | -0.19967 | 306 ft | 171 kts | 255° |
| 2026-04-16 14:43 | 51.14419 | -0.21845 | 1036 ft | 175 kts | 252° |
| 2026-04-16 14:43 | 51.14148 | -0.23721 | 1972 ft | 170 kts | 253° |
| 2026-04-16 14:43 | 51.13905 | -0.25515 | 2827 ft | 166 kts | 255° |
| 2026-04-16 14:44 | 51.13666 | -0.27293 | 3626 ft | 164 kts | 255° |
| 2026-04-16 14:44 | 51.13411 | -0.29151 | 4043 ft | 182 kts | 256° |
| 2026-04-16 14:44 | 51.13120 | -0.31225 | 4405 ft | 202 kts | 256° |
| 2026-04-16 14:44 | 51.12805 | -0.33482 | 4913 ft | 214 kts | 256° |
| 2026-04-16 14:45 | 51.12476 | -0.35828 | 5058 ft | 217 kts | 256° |
| 2026-04-16 14:45 | 51.12150 | -0.38166 | 5024 ft | 216 kts | 256° |
| 2026-04-16 14:45 | 51.11731 | -0.40455 | 5015 ft | 217 kts | 239° |
| 2026-04-16 14:45 | 51.10600 | -0.41953 | 5008 ft | 218 kts | 198° |
| 2026-04-16 14:46 | 51.09062 | -0.42086 | 5012 ft | 226 kts | 180° |
| 2026-04-16 14:46 | 51.07489 | -0.41839 | 5010 ft | 228 kts | 179° |
| 2026-04-16 14:46 | 51.06226 | -0.41672 | 5020 ft | 250 kts | 178° |
| 2026-04-16 14:46 | 51.04804 | -0.41505 | 5009 ft | 256 kts | 178° |
| 2026-04-16 14:47 | 51.03021 | -0.41273 | 5012 ft | 257 kts | 179° |
| 2026-04-16 14:47 | 51.01272 | -0.41027 | 5026 ft | 257 kts | 178° |
| 2026-04-16 14:47 | 50.99478 | -0.40778 | 5139 ft | 264 kts | 179° |
| 2026-04-16 14:47 | 50.97630 | -0.40537 | 5803 ft | 266 kts | 179° |
| 2026-04-16 14:48 | 50.95806 | -0.40301 | 5989 ft | 261 kts | 179° |
| 2026-04-16 14:48 | 50.94000 | -0.40071 | 6033 ft | 261 kts | 179° |
| 2026-04-16 14:48 | 50.92440 | -0.39853 | 6034 ft | 263 kts | 178° |
| 2026-04-16 14:48 | 50.90618 | -0.39623 | 6046 ft | 262 kts | 178° |
| 2026-04-16 14:49 | 50.88803 | -0.39396 | 6033 ft | 262 kts | 179° |
| 2026-04-16 14:49 | 50.87004 | -0.39177 | 6029 ft | 263 kts | 178° |
| 2026-04-16 14:49 | 50.85224 | -0.38951 | 6035 ft | 262 kts | 179° |
| 2026-04-16 14:49 | 50.83424 | -0.38444 | 6045 ft | 265 kts | 165° |
| 2026-04-16 14:50 | 50.81758 | -0.37165 | 6037 ft | 269 kts | 150° |
| 2026-04-16 14:50 | 50.80187 | -0.35510 | 6527 ft | 273 kts | 150° |
| 2026-04-16 14:50 | 50.78598 | -0.33853 | 7469 ft | 275 kts | 150° |
| 2026-04-16 14:50 | 50.76988 | -0.32184 | 8332 ft | 279 kts | 150° |
| 2026-04-16 14:51 | 50.75348 | -0.30490 | 9183 ft | 284 kts | 150° |
| 2026-04-16 14:51 | 50.73701 | -0.28793 | 10014 ft | 289 kts | 151° |
| 2026-04-16 14:51 | 50.72006 | -0.27046 | 10781 ft | 293 kts | 151° |
| 2026-04-16 14:51 | 50.70268 | -0.25249 | 11572 ft | 297 kts | 151° |
| 2026-04-16 14:53 | 50.56589 | -0.10921 | 15601 ft | 359 kts | 150° |
| 2026-04-16 14:53 | 50.54524 | -0.08765 | 16214 ft | 363 kts | 150° |
| 2026-04-16 14:54 | 50.52407 | -0.06558 | 16837 ft | 367 kts | 150° |
| 2026-04-16 14:54 | 50.50410 | -0.04480 | 17419 ft | 371 kts | 150° |
| 2026-04-16 14:54 | 50.48245 | -0.02227 | 18038 ft | 375 kts | 151° |
| 2026-04-16 14:54 | 50.46264 | -0.00168 | 18574 ft | 379 kts | 151° |
| 2026-04-16 14:55 | 50.44050 | 0.02129 | 19103 ft | 383 kts | 151° |
| 2026-04-16 14:55 | 50.41814 | 0.04444 | 19608 ft | 387 kts | 151° |
| 2026-04-16 14:55 | 50.39555 | 0.06781 | 20128 ft | 391 kts | 151° |
| 2026-04-16 14:55 | 50.37274 | 0.09141 | 20650 ft | 395 kts | 151° |
| 2026-04-16 14:56 | 50.34972 | 0.11523 | 21167 ft | 398 kts | 151° |
| 2026-04-16 14:56 | 50.32650 | 0.13921 | 21678 ft | 402 kts | 151° |
| 2026-04-16 14:56 | 50.30307 | 0.16334 | 22184 ft | 405 kts | 151° |
| 2026-04-16 14:56 | 50.27943 | 0.18764 | 22683 ft | 408 kts | 152° |
| 2026-04-16 14:57 | 50.25559 | 0.21211 | 23170 ft | 412 kts | 152° |
| 2026-04-16 14:57 | 50.23154 | 0.23675 | 23653 ft | 415 kts | 152° |
| 2026-04-16 14:57 | 50.20730 | 0.26160 | 24071 ft | 418 kts | 152° |
| 2026-04-16 14:57 | 50.18289 | 0.28664 | 24450 ft | 421 kts | 152° |
| 2026-04-16 14:58 | 50.15838 | 0.31187 | 24825 ft | 425 kts | 152° |
| 2026-04-16 14:58 | 50.10883 | 0.36301 | 25628 ft | 429 kts | 152° |
| 2026-04-16 14:58 | 50.08382 | 0.38870 | 26029 ft | 432 kts | 152° |
| 2026-04-16 14:59 | 50.05865 | 0.41448 | 26408 ft | 434 kts | 152° |
| 2026-04-16 14:59 | 50.03332 | 0.44033 | 26805 ft | 437 kts | 152° |
| 2026-04-16 14:59 | 50.00785 | 0.46627 | 27173 ft | 439 kts | 152° |
| 2026-04-16 14:59 | 49.98218 | 0.49235 | 27509 ft | 442 kts | 152° |
| 2026-04-16 15:00 | 49.95634 | 0.51860 | 27846 ft | 445 kts | 152° |
| 2026-04-16 15:00 | 49.93038 | 0.54500 | 28210 ft | 447 kts | 152° |
| 2026-04-16 15:00 | 49.90430 | 0.57153 | 28581 ft | 449 kts | 152° |
| 2026-04-16 15:00 | 49.87807 | 0.59816 | 28937 ft | 452 kts | 152° |
| 2026-04-16 15:01 | 49.85200 | 0.62576 | 29288 ft | 457 kts | 147° |
| 2026-04-16 15:01 | 49.82753 | 0.65651 | 29624 ft | 461 kts | 146° |
| 2026-04-16 15:01 | 49.80261 | 0.68799 | 29964 ft | 463 kts | 146° |
| 2026-04-16 15:01 | 49.77755 | 0.71960 | 30288 ft | 466 kts | 146° |
| 2026-04-16 15:02 | 49.75235 | 0.75130 | 30573 ft | 468 kts | 146° |
| 2026-04-16 15:02 | 49.72710 | 0.78301 | 30839 ft | 470 kts | 146° |
| 2026-04-16 15:02 | 49.70171 | 0.81493 | 31123 ft | 471 kts | 146° |
| 2026-04-16 15:03 | 49.65153 | 0.87788 | 31230 ft | 450 kts | 146° |
| 2026-04-16 15:03 | 49.60364 | 0.93769 | 31233 ft | 441 kts | 146° |
| 2026-04-16 15:04 | 49.55596 | 0.99694 | 31237 ft | 440 kts | 146° |
| 2026-04-16 15:04 | 49.50827 | 1.05591 | 31231 ft | 439 kts | 146° |
| 2026-04-16 15:05 | 49.46068 | 1.11472 | 31253 ft | 438 kts | 146° |
| 2026-04-16 15:05 | 49.41370 | 1.17270 | 31240 ft | 438 kts | 146° |
| 2026-04-16 15:06 | 49.36625 | 1.23124 | 31238 ft | 438 kts | 146° |
| 2026-04-16 15:06 | 49.31878 | 1.28951 | 31208 ft | 438 kts | 146° |
| 2026-04-16 15:07 | 49.27121 | 1.34780 | 31199 ft | 438 kts | 146° |
| 2026-04-16 15:07 | 49.22359 | 1.40600 | 31201 ft | 438 kts | 146° |
| 2026-04-16 15:08 | 49.17592 | 1.46417 | 31228 ft | 438 kts | 146° |
| 2026-04-16 15:08 | 49.12847 | 1.52180 | 31229 ft | 438 kts | 146° |
| 2026-04-16 15:09 | 49.08045 | 1.58003 | 31213 ft | 438 kts | 146° |
| 2026-04-16 15:09 | 49.03271 | 1.63789 | 31214 ft | 438 kts | 146° |
| 2026-04-16 15:10 | 48.98500 | 1.69551 | 31217 ft | 437 kts | 146° |
| 2026-04-16 15:10 | 48.93730 | 1.75295 | 31219 ft | 437 kts | 146° |
| 2026-04-16 15:11 | 48.88954 | 1.81029 | 31227 ft | 438 kts | 146° |
| 2026-04-16 15:11 | 48.84165 | 1.86753 | 31225 ft | 438 kts | 146° |
| 2026-04-16 15:12 | 48.79369 | 1.92477 | 31230 ft | 439 kts | 146° |
| 2026-04-16 15:12 | 48.74568 | 1.98199 | 31232 ft | 439 kts | 146° |
| 2026-04-16 15:13 | 48.69769 | 2.03913 | 31232 ft | 439 kts | 146° |
| 2026-04-16 15:13 | 48.64966 | 2.09617 | 31233 ft | 439 kts | 146° |
| 2026-04-16 15:14 | 48.60209 | 2.15250 | 31221 ft | 438 kts | 146° |
| 2026-04-16 15:14 | 48.55783 | 2.21618 | 31224 ft | 444 kts | 130° |
| 2026-04-16 15:15 | 48.52241 | 2.29297 | 31225 ft | 446 kts | 127° |
| 2026-04-16 15:15 | 48.48713 | 2.36997 | 31226 ft | 447 kts | 127° |
| 2026-04-16 15:16 | 48.45171 | 2.44692 | 31227 ft | 447 kts | 127° |
| 2026-04-16 15:16 | 48.41620 | 2.52366 | 31229 ft | 447 kts | 127° |
| 2026-04-16 15:17 | 48.38067 | 2.60030 | 31218 ft | 446 kts | 127° |
| 2026-04-16 15:17 | 48.34512 | 2.67679 | 31224 ft | 446 kts | 127° |
| 2026-04-16 15:18 | 48.30947 | 2.75327 | 31234 ft | 447 kts | 127° |
| 2026-04-16 15:18 | 48.27179 | 2.82696 | 31237 ft | 443 kts | 138° |
| 2026-04-16 15:19 | 48.22444 | 2.88521 | 31240 ft | 440 kts | 146° |
| 2026-04-16 15:19 | 48.17594 | 2.94115 | 31224 ft | 440 kts | 146° |
| 2026-04-16 15:20 | 48.12752 | 2.99717 | 31235 ft | 440 kts | 145° |
| 2026-04-16 15:20 | 48.07816 | 3.04970 | 31232 ft | 436 kts | 155° |
| 2026-04-16 15:21 | 48.02305 | 3.08604 | 31234 ft | 433 kts | 161° |
| 2026-04-16 15:21 | 47.96752 | 3.12091 | 31219 ft | 433 kts | 161° |
| 2026-04-16 15:22 | 47.91202 | 3.15585 | 31228 ft | 433 kts | 161° |
| 2026-04-16 15:22 | 47.85645 | 3.19073 | 31234 ft | 433 kts | 161° |
| 2026-04-16 15:23 | 47.80089 | 3.22554 | 31234 ft | 433 kts | 161° |
| 2026-04-16 15:23 | 47.74529 | 3.26016 | 31221 ft | 433 kts | 161° |
| 2026-04-16 15:24 | 47.68971 | 3.29476 | 31226 ft | 433 kts | 160° |
| 2026-04-16 15:24 | 47.63414 | 3.32934 | 31231 ft | 433 kts | 161° |
| 2026-04-16 15:25 | 47.58800 | 3.35804 | 31236 ft | 433 kts | 160° |
| 2026-04-16 15:25 | 47.53240 | 3.39253 | 31217 ft | 433 kts | 160° |
| 2026-04-16 15:26 | 47.47670 | 3.42688 | 31221 ft | 434 kts | 160° |
| 2026-04-16 15:26 | 47.42102 | 3.46111 | 31231 ft | 434 kts | 160° |
| 2026-04-16 15:27 | 47.36524 | 3.49518 | 31223 ft | 434 kts | 160° |
| 2026-04-16 15:27 | 47.31015 | 3.52886 | 31215 ft | 433 kts | 160° |
| 2026-04-16 15:28 | 47.25447 | 3.56303 | 31221 ft | 433 kts | 160° |
| 2026-04-16 15:28 | 47.19886 | 3.59702 | 31221 ft | 433 kts | 160° |
| 2026-04-16 15:29 | 47.14320 | 3.63097 | 31222 ft | 433 kts | 160° |
| 2026-04-16 15:29 | 47.08752 | 3.66480 | 31217 ft | 433 kts | 160° |
| 2026-04-16 15:30 | 47.03180 | 3.69849 | 31218 ft | 433 kts | 160° |
| 2026-04-16 15:30 | 46.97746 | 3.73635 | 31218 ft | 436 kts | 148° |
| 2026-04-16 15:30 | 46.95374 | 3.76425 | 31218 ft | 438 kts | 136° |
| 2026-04-16 15:31 | 46.93419 | 3.79754 | 31217 ft | 439 kts | 125° |
| 2026-04-16 15:31 | 46.91894 | 3.83618 | 31215 ft | 439 kts | 114° |
| 2026-04-16 15:31 | 46.90774 | 3.87768 | 31211 ft | 439 kts | 110° |
| 2026-04-16 15:32 | 46.88583 | 3.96101 | 31202 ft | 439 kts | 110° |
| 2026-04-16 15:32 | 46.86358 | 4.04415 | 31208 ft | 439 kts | 111° |
| 2026-04-16 15:33 | 46.84133 | 4.12727 | 31219 ft | 439 kts | 110° |
| 2026-04-16 15:33 | 46.81900 | 4.21030 | 31220 ft | 439 kts | 110° |
| 2026-04-16 15:34 | 46.80066 | 4.29490 | 31217 ft | 437 kts | 100° |
| 2026-04-16 15:34 | 46.78818 | 4.38184 | 31216 ft | 437 kts | 100° |
| 2026-04-16 15:35 | 46.77554 | 4.46852 | 31210 ft | 437 kts | 101° |
| 2026-04-16 15:35 | 46.76276 | 4.55533 | 31214 ft | 437 kts | 100° |
| 2026-04-16 15:36 | 46.74998 | 4.64200 | 31213 ft | 437 kts | 101° |
| 2026-04-16 15:36 | 46.73710 | 4.72830 | 30980 ft | 430 kts | 101° |
| 2026-04-16 15:36 | 46.73075 | 4.77066 | 30737 ft | 426 kts | 101° |
| 2026-04-16 15:37 | 46.72448 | 4.81258 | 30499 ft | 423 kts | 101° |
| 2026-04-16 15:37 | 46.71824 | 4.85435 | 30253 ft | 420 kts | 101° |
| 2026-04-16 15:37 | 46.71201 | 4.89586 | 29962 ft | 418 kts | 101° |
| 2026-04-16 15:37 | 46.70583 | 4.93698 | 29593 ft | 413 kts | 101° |
| 2026-04-16 15:38 | 46.69971 | 4.97762 | 29133 ft | 409 kts | 101° |
| 2026-04-16 15:38 | 46.69361 | 5.01787 | 28685 ft | 405 kts | 101° |
| 2026-04-16 15:38 | 46.68753 | 5.05770 | 28237 ft | 401 kts | 101° |
| 2026-04-16 15:38 | 46.68150 | 5.09718 | 27787 ft | 398 kts | 101° |
| 2026-04-16 15:39 | 46.67550 | 5.13632 | 27344 ft | 395 kts | 101° |
| 2026-04-16 15:39 | 46.66958 | 5.17507 | 26918 ft | 391 kts | 101° |
| 2026-04-16 15:39 | 46.66373 | 5.21361 | 26487 ft | 388 kts | 101° |
| 2026-04-16 15:39 | 46.65804 | 5.25141 | 26052 ft | 386 kts | 101° |
| 2026-04-16 15:40 | 46.65231 | 5.28953 | 25609 ft | 385 kts | 101° |
| 2026-04-16 15:40 | 46.64661 | 5.32750 | 25164 ft | 383 kts | 102° |
| 2026-04-16 15:40 | 46.64090 | 5.36532 | 24697 ft | 383 kts | 102° |
| 2026-04-16 15:40 | 46.63516 | 5.40309 | 24234 ft | 382 kts | 102° |
| 2026-04-16 15:41 | 46.62938 | 5.44082 | 23758 ft | 382 kts | 102° |
| 2026-04-16 15:41 | 46.62358 | 5.47853 | 23233 ft | 381 kts | 102° |
| 2026-04-16 15:41 | 46.61778 | 5.51605 | 22778 ft | 379 kts | 102° |
| 2026-04-16 15:41 | 46.61199 | 5.55339 | 22315 ft | 378 kts | 103° |
| 2026-04-16 15:42 | 46.60620 | 5.59057 | 21858 ft | 376 kts | 103° |
| 2026-04-16 15:42 | 46.60040 | 5.62760 | 21399 ft | 375 kts | 103° |
| 2026-04-16 15:42 | 46.59461 | 5.66442 | 20956 ft | 374 kts | 103° |
| 2026-04-16 15:42 | 46.58881 | 5.70119 | 20502 ft | 372 kts | 103° |
| 2026-04-16 15:43 | 46.58304 | 5.73786 | 20052 ft | 371 kts | 103° |
| 2026-04-16 15:43 | 46.57637 | 5.77399 | 19601 ft | 370 kts | 111° |
| 2026-04-16 15:43 | 46.56475 | 5.80710 | 19158 ft | 367 kts | 126° |
| 2026-04-16 15:43 | 46.54835 | 5.83520 | 18718 ft | 364 kts | 139° |
| 2026-04-16 15:44 | 46.52836 | 5.85736 | 18250 ft | 361 kts | 148° |
| 2026-04-16 15:44 | 46.50775 | 5.87792 | 17819 ft | 358 kts | 147° |
| 2026-04-16 15:44 | 46.48720 | 5.89848 | 17216 ft | 361 kts | 147° |
| 2026-04-16 15:44 | 46.46672 | 5.91899 | 16845 ft | 356 kts | 147° |
| 2026-04-16 15:45 | 46.44637 | 5.93941 | 16456 ft | 353 kts | 147° |
| 2026-04-16 15:45 | 46.42615 | 5.95967 | 16028 ft | 352 kts | 147° |
| 2026-04-16 15:45 | 46.40610 | 5.97978 | 15564 ft | 351 kts | 147° |
| 2026-04-16 15:45 | 46.38616 | 5.99975 | 15296 ft | 345 kts | 147° |
| 2026-04-16 15:46 | 46.36535 | 6.01637 | 14900 ft | 340 kts | 163° |
| 2026-04-16 15:46 | 46.34239 | 6.02152 | 14422 ft | 331 kts | 185° |
| 2026-04-16 15:46 | 46.32054 | 6.01421 | 14002 ft | 315 kts | 206° |
| 2026-04-16 15:46 | 46.30267 | 5.99750 | 13520 ft | 301 kts | 225° |
| 2026-04-16 15:47 | 46.28835 | 5.97631 | 13074 ft | 290 kts | 228° |
| 2026-04-16 15:47 | 46.27457 | 5.95567 | 12685 ft | 280 kts | 227° |
| 2026-04-16 15:47 | 46.26090 | 5.93566 | 12134 ft | 284 kts | 226° |
| 2026-04-16 15:47 | 46.24690 | 5.91541 | 11798 ft | 283 kts | 226° |
| 2026-04-16 15:48 | 46.23305 | 5.89554 | 11517 ft | 281 kts | 226° |
| 2026-04-16 15:48 | 46.21872 | 5.87519 | 10676 ft | 298 kts | 225° |
| 2026-04-16 15:48 | 46.20356 | 5.85426 | 9910 ft | 302 kts | 224° |
| 2026-04-16 15:48 | 46.18818 | 5.83338 | 9020 ft | 303 kts | 224° |
| 2026-04-16 15:49 | 46.17286 | 5.81268 | 8183 ft | 297 kts | 224° |
| 2026-04-16 15:49 | 46.15797 | 5.79277 | 7378 ft | 287 kts | 223° |
| 2026-04-16 15:49 | 46.14357 | 5.77385 | 7027 ft | 276 kts | 223° |
| 2026-04-16 15:49 | 46.12934 | 5.75650 | 6901 ft | 266 kts | 214° |
| 2026-04-16 15:50 | 46.11314 | 5.74569 | 6869 ft | 249 kts | 193° |
| 2026-04-16 15:50 | 46.09637 | 5.74386 | 6904 ft | 240 kts | 171° |
| 2026-04-16 15:50 | 46.08045 | 5.75108 | 6928 ft | 238 kts | 148° |
| 2026-04-16 15:50 | 46.06766 | 5.76529 | 6923 ft | 235 kts | 131° |
| 2026-04-16 15:51 | 46.05715 | 5.78336 | 6660 ft | 237 kts | 122° |
| 2026-04-16 15:51 | 46.04858 | 5.80295 | 6611 ft | 229 kts | 116° |
| 2026-04-16 15:51 | 46.04264 | 5.82394 | 6381 ft | 224 kts | 97° |
| 2026-04-16 15:51 | 46.04263 | 5.84576 | 6347 ft | 218 kts | 72° |
| 2026-04-16 15:52 | 46.05112 | 5.86290 | 6279 ft | 215 kts | 30° |
| 2026-04-16 15:52 | 46.06511 | 5.87137 | 5866 ft | 221 kts | 21° |
| 2026-04-16 15:52 | 46.07916 | 5.88030 | 5516 ft | 221 kts | 30° |
| 2026-04-16 15:52 | 46.09167 | 5.89327 | 5174 ft | 223 kts | 39° |
| 2026-04-16 15:53 | 46.10255 | 5.90916 | 4866 ft | 222 kts | 50° |
| 2026-04-16 15:53 | 46.11198 | 5.92684 | 4570 ft | 222 kts | 50° |
| 2026-04-16 15:53 | 46.12212 | 5.94340 | 4335 ft | 217 kts | 42° |
| 2026-04-16 15:53 | 46.13324 | 5.95777 | 4090 ft | 214 kts | 40° |
| 2026-04-16 15:54 | 46.14398 | 5.97268 | 3823 ft | 214 kts | 45° |
| 2026-04-16 15:54 | 46.15424 | 5.98812 | 3577 ft | 214 kts | 43° |
| 2026-04-16 15:54 | 46.16492 | 6.00254 | 3288 ft | 206 kts | 43° |
| 2026-04-16 15:54 | 46.17468 | 6.01684 | 2922 ft | 194 kts | 45° |
| 2026-04-16 15:55 | 46.18402 | 6.03023 | 2621 ft | 184 kts | 43° |
| 2026-04-16 15:55 | 46.19297 | 6.04341 | 2443 ft | 181 kts | 44° |
| 2026-04-16 15:55 | 46.20143 | 6.05579 | 2265 ft | 165 kts | 43° |
| 2026-04-16 15:55 | 46.20933 | 6.06711 | 1991 ft | 152 kts | 43° |
| 2026-04-16 15:56 | 46.21636 | 6.07742 | 1788 ft | 137 kts | 42° |
| 2026-04-16 15:56 | 46.22314 | 6.08704 | 1594 ft | 134 kts | 44° |
| 2026-04-16 15:56 | 46.22961 | 6.09659 | 1425 ft | 131 kts | 45° |
| 2026-04-16 15:56 | 46.23516 | 6.10472 | 1387 ft | 91 kts | 46° |
| 2026-04-16 15:57 | 46.23856 | 6.10966 | 1379 ft | 53 kts | 45° |
| 2026-04-16 15:57 | 46.24093 | 6.11319 | 1375 ft | 46 kts | 45° |
| 2026-04-16 15:57 | 46.24266 | 6.11591 | 1373 ft | 26 kts | 57° |
| 2026-04-16 15:57 | 46.24332 | 6.11823 | 1368 ft | 18 kts | 77° |
| 2026-04-16 15:58 | 46.24305 | 6.11941 | 1363 ft | 16 kts | 182° |
| 2026-04-16 15:58 | 46.24224 | 6.11840 | 1362 ft | 15 kts | 226° |
| 2026-04-16 15:58 | 46.24175 | 6.11769 | 1364 ft | 0 kts | 225° |
| 2026-04-16 15:58 | 46.24174 | 6.11768 | 1364 ft | 1 kts | 225° |
| 2026-04-16 15:59 | 46.24121 | 6.11690 | 1367 ft | 14 kts | 226° |
| 2026-04-16 15:59 | 46.24039 | 6.11569 | 1370 ft | 16 kts | 225° |
| 2026-04-16 15:59 | 46.23949 | 6.11436 | 1374 ft | 22 kts | 225° |
| 2026-04-16 16:00 | 46.23839 | 6.11276 | 1376 ft | 22 kts | 225° |
| 2026-04-16 16:00 | 46.23735 | 6.11125 | 1381 ft | 19 kts | 225° |
| 2026-04-16 16:00 | 46.23640 | 6.10980 | 1387 ft | 26 kts | 227° |
| 2026-04-16 16:00 | 46.23504 | 6.10785 | 1388 ft | 23 kts | 226° |
| 2026-04-16 16:01 | 46.23415 | 6.10655 | 1397 ft | 17 kts | 222° |
| 2026-04-16 16:01 | 46.23333 | 6.10546 | 1398 ft | 15 kts | 225° |
| 2026-04-16 16:01 | 46.23275 | 6.10462 | 1400 ft | 8 kts | 226° |
| 2026-04-16 16:01 | 46.23232 | 6.10437 | 1397 ft | 6 kts | 179° |
| 2026-04-16 16:02 | 46.23193 | 6.10437 | 1397 ft | 5 kts | 181° |
| 2026-04-16 16:02 | 46.23165 | 6.10436 | 1393 ft | 0 kts | 181° |